createdAt,value
2018-03-20T00:01:48.282Z,62.30
2018-03-20T00:04:14.223Z,62.60
2018-03-20T00:06:40.197Z,62.30
2018-03-20T00:09:06.272Z,62.50
2018-03-20T00:11:32.197Z,62.40
2018-03-20T00:13:59.043Z,63.20
2018-03-20T00:16:25.760Z,64.00
2018-03-20T00:18:51.696Z,64.00
2018-03-20T00:21:17.655Z,64.30
2018-03-20T00:23:43.602Z,64.70
2018-03-20T00:26:09.672Z,65.40
2018-03-20T00:28:36.344Z,64.70
2018-03-20T00:31:02.334Z,64.70
2018-03-20T00:33:29.045Z,65.80
2018-03-20T00:35:54.968Z,65.70
2018-03-20T00:38:20.940Z,65.00
2018-03-20T00:40:47.021Z,64.80
2018-03-20T00:43:13.096Z,65.10
2018-03-20T00:45:39.051Z,65.30
2018-03-20T00:48:05.064Z,65.20
2018-03-20T00:50:30.980Z,65.40
2018-03-20T00:52:56.938Z,65.40
2018-03-20T00:55:22.875Z,65.30
2018-03-20T00:57:49.734Z,65.20
2018-03-20T01:00:16.402Z,65.50
2018-03-20T01:02:42.369Z,65.40
2018-03-20T01:05:08.297Z,65.30
2018-03-20T01:07:35.031Z,65.10
2018-03-20T01:10:00.980Z,65.10
2018-03-20T01:12:26.905Z,65.80
2018-03-20T01:14:53.169Z,64.90
2018-03-20T01:17:19.123Z,64.40
2018-03-20T01:19:45.088Z,63.90
2018-03-20T01:22:11.022Z,64.10
2018-03-20T01:24:37.007Z,64.20
2018-03-20T01:27:03.681Z,64.00
2018-03-20T01:29:29.758Z,64.00
2018-03-20T01:31:56.440Z,64.50
2018-03-20T01:34:22.392Z,64.50
2018-03-20T01:36:48.333Z,64.90
2018-03-20T01:39:14.288Z,65.40
2018-03-20T01:41:40.210Z,65.90
2018-03-20T01:44:06.172Z,66.20
2018-03-20T01:46:32.236Z,66.40
2018-03-20T01:48:58.176Z,66.80
2018-03-20T01:51:24.176Z,66.80
2018-03-20T01:53:50.856Z,67.20
2018-03-20T01:56:16.807Z,67.30
2018-03-20T01:58:42.733Z,67.30
2018-03-20T02:01:08.806Z,67.50
2018-03-20T02:03:34.757Z,67.80
2018-03-20T02:06:00.736Z,68.00
2018-03-20T02:08:27.421Z,68.00
2018-03-20T02:10:53.386Z,68.10
2018-03-20T02:13:20.217Z,68.40
2018-03-20T02:15:46.148Z,68.40
2018-03-20T02:18:12.983Z,68.60
2018-03-20T02:20:38.912Z,68.60
2018-03-20T02:23:05.638Z,68.90
2018-03-20T02:25:31.582Z,68.80
2018-03-20T02:27:57.589Z,68.80
2018-03-20T02:30:23.521Z,68.60
2018-03-20T02:32:50.369Z,69.20
2018-03-20T02:35:17.081Z,69.50
2018-03-20T02:37:43.008Z,69.50
2018-03-20T02:40:08.968Z,69.80
2018-03-20T02:42:34.943Z,69.70
2018-03-20T02:45:00.899Z,70.00
2018-03-20T02:47:27.604Z,70.60
2018-03-20T02:49:53.533Z,69.90
2018-03-20T02:52:19.616Z,70.00
2018-03-20T02:54:45.553Z,69.90
2018-03-20T02:57:11.492Z,69.70
2018-03-20T02:59:37.436Z,69.50
2018-03-20T03:02:04.113Z,69.50
2018-03-20T03:04:30.184Z,69.40
2018-03-20T03:06:56.136Z,69.90
2018-03-20T03:09:22.097Z,69.80
2018-03-20T03:11:48.053Z,70.10
2018-03-20T03:14:14.165Z,70.00
2018-03-20T03:16:40.100Z,69.90
2018-03-20T03:19:06.172Z,70.00
2018-03-20T03:21:32.099Z,70.00
2018-03-20T03:23:58.834Z,70.10
2018-03-20T03:26:24.797Z,70.10
2018-03-20T03:28:50.733Z,70.10
2018-03-20T03:31:16.704Z,69.70
2018-03-20T03:33:42.638Z,69.30
2018-03-20T03:36:08.724Z,69.80
2018-03-20T03:38:34.657Z,69.90
2018-03-20T03:41:00.647Z,70.00
2018-03-20T03:43:26.624Z,70.00
2018-03-20T03:45:53.361Z,70.40
2018-03-20T03:48:19.321Z,69.70
2018-03-20T03:50:45.252Z,70.00
2018-03-20T03:53:12.079Z,69.70
2018-03-20T03:55:38.013Z,69.80
2018-03-20T03:58:03.984Z,69.90
2018-03-20T04:00:29.913Z,69.80
2018-03-20T04:02:55.904Z,70.10
2018-03-20T04:05:22.582Z,69.80
2018-03-20T04:07:48.540Z,69.80
2018-03-20T04:10:14.641Z,69.40
2018-03-20T04:12:40.564Z,68.70
2018-03-20T04:15:06.683Z,68.70
2018-03-20T04:17:32.607Z,68.20
2018-03-20T04:19:58.584Z,67.90
2018-03-20T04:22:24.513Z,67.70
2018-03-20T04:24:50.628Z,67.40
2018-03-20T04:27:17.292Z,67.20
2018-03-20T04:29:43.264Z,67.30
2018-03-20T04:32:09.955Z,66.60
2018-03-20T04:34:35.890Z,66.60
2018-03-20T04:37:01.844Z,66.40
2018-03-20T04:39:27.936Z,66.10
2018-03-20T04:41:53.880Z,65.40
2018-03-20T04:44:19.812Z,65.70
2018-03-20T04:46:45.887Z,65.50
2018-03-20T04:49:11.839Z,65.10
2018-03-20T04:51:37.850Z,65.30
2018-03-20T04:54:03.763Z,65.20
2018-03-20T04:56:29.760Z,65.60
2018-03-20T04:58:55.709Z,65.60
2018-03-20T05:01:21.692Z,65.60
2018-03-20T05:03:47.625Z,65.90
2018-03-20T05:06:13.731Z,66.00
2018-03-20T05:08:39.675Z,65.90
2018-03-20T05:11:05.610Z,65.80
2018-03-20T05:13:31.746Z,66.00
2018-03-20T05:15:57.696Z,66.10
2018-03-20T05:18:23.652Z,66.20
2018-03-20T05:20:49.583Z,66.20
2018-03-20T05:23:15.556Z,66.20
2018-03-20T05:25:41.498Z,66.30
2018-03-20T05:28:08.336Z,66.90
2018-03-20T05:30:34.280Z,66.90
2018-03-20T05:33:00.949Z,67.80
2018-03-20T05:35:26.901Z,67.70
2018-03-20T05:37:52.836Z,67.70
2018-03-20T05:40:18.800Z,67.90
2018-03-20T05:42:44.736Z,67.70
2018-03-20T05:45:10.817Z,67.70
2018-03-20T05:47:37.484Z,68.30
2018-03-20T05:50:03.448Z,68.20
2018-03-20T05:52:29.408Z,68.60
2018-03-20T05:54:56.152Z,69.00
2018-03-20T05:57:22.121Z,69.00
2018-03-20T05:59:48.052Z,69.30
2018-03-20T06:02:14.120Z,68.90
2018-03-20T06:04:40.051Z,69.10
2018-03-20T06:07:06.065Z,69.40
2018-03-20T06:09:32.017Z,69.60
2018-03-20T06:11:57.957Z,68.70
2018-03-20T06:14:24.056Z,68.60
2018-03-20T06:16:49.996Z,68.60
2018-03-20T06:19:16.075Z,68.70
2018-03-20T06:21:42.748Z,69.40
2018-03-20T06:24:08.705Z,69.30
2018-03-20T06:26:34.649Z,69.40
2018-03-20T06:29:01.472Z,69.20
2018-03-20T06:31:27.428Z,69.10
2018-03-20T06:33:53.441Z,69.70
2018-03-20T06:36:20.121Z,69.50
2018-03-20T06:38:46.088Z,69.50
2018-03-20T06:41:12.033Z,69.50
2018-03-20T06:43:37.990Z,69.80
2018-03-20T06:46:03.916Z,69.50
2018-03-20T06:48:29.868Z,69.30
2018-03-20T06:50:55.803Z,69.50
2018-03-20T06:53:22.535Z,69.90
2018-03-20T06:55:48.496Z,69.80
2018-03-20T06:58:14.479Z,69.60
2018-03-20T07:00:40.434Z,68.10
2018-03-20T07:03:06.379Z,68.20
2018-03-20T07:05:32.480Z,68.40
2018-03-20T07:07:58.428Z,68.00
2018-03-20T07:10:24.405Z,68.40
2018-03-20T07:12:51.109Z,68.80
2018-03-20T07:15:17.219Z,68.80
2018-03-20T07:17:43.173Z,68.40
2018-03-20T07:20:09.260Z,68.30
2018-03-20T07:22:35.212Z,68.70
2018-03-20T07:25:01.195Z,68.20
2018-03-20T07:27:27.144Z,67.30
2018-03-20T07:29:53.128Z,67.40
2018-03-20T07:32:19.057Z,66.70
2018-03-20T07:34:44.999Z,66.60
2018-03-20T07:37:11.093Z,66.50
2018-03-20T07:39:37.042Z,66.90
2018-03-20T07:42:03.032Z,66.10
2018-03-20T07:44:28.987Z,65.80
2018-03-20T07:46:54.960Z,66.70
2018-03-20T07:49:21.665Z,66.20
2018-03-20T07:51:47.680Z,66.10
2018-03-20T07:54:13.638Z,66.30
2018-03-20T07:56:40.397Z,65.50
2018-03-20T07:59:06.354Z,66.40
2018-03-20T08:01:32.290Z,65.80
2018-03-20T08:03:58.256Z,66.10
2018-03-20T08:06:24.183Z,65.80
2018-03-20T08:08:50.277Z,65.30
2018-03-20T08:11:16.989Z,66.20
2018-03-20T08:13:43.183Z,66.10
2018-03-20T08:16:09.093Z,65.30
2018-03-20T08:18:35.060Z,64.90
2018-03-20T08:21:01.005Z,64.60
2018-03-20T08:23:26.953Z,64.50
2018-03-20T08:25:53.064Z,64.60
2018-03-20T08:28:19.772Z,64.20
2018-03-20T08:30:45.736Z,64.20
2018-03-20T08:33:11.689Z,64.50
2018-03-20T08:35:37.660Z,64.80
2018-03-20T08:38:03.616Z,66.00
2018-03-20T08:40:29.648Z,65.10
2018-03-20T08:42:55.601Z,63.00
2018-03-20T08:45:21.580Z,63.10
2018-03-20T08:47:47.521Z,62.30
2018-03-20T08:50:13.473Z,62.80
2018-03-20T08:52:39.450Z,63.40
2018-03-20T08:55:05.412Z,62.70
2018-03-20T08:57:31.515Z,63.30
2018-03-20T08:59:57.473Z,62.80
2018-03-20T09:02:23.461Z,63.50
2018-03-20T09:04:49.426Z,61.70
2018-03-20T09:07:15.410Z,62.10
2018-03-20T09:09:41.345Z,61.40
2018-03-20T09:12:07.296Z,59.40
2018-03-20T09:14:33.532Z,59.40
2018-03-20T09:17:00.213Z,57.40
2018-03-20T09:19:26.207Z,57.40
2018-03-20T09:21:52.156Z,56.40
2018-03-20T09:24:18.142Z,55.80
2018-03-20T09:26:44.814Z,54.00
2018-03-20T09:29:10.912Z,54.00
2018-03-20T09:31:37.597Z,51.90
2018-03-20T09:34:03.575Z,51.40
2018-03-20T09:36:29.561Z,51.20
2018-03-20T09:38:55.509Z,52.40
2018-03-20T09:41:22.245Z,49.90
2018-03-20T09:43:49.095Z,51.00
2018-03-20T09:46:14.992Z,51.00
2018-03-20T09:48:40.955Z,50.80
2018-03-20T09:51:06.949Z,50.30
2018-03-20T09:53:32.909Z,51.40
2018-03-20T09:55:58.854Z,52.40
2018-03-20T09:58:24.849Z,52.60
2018-03-20T10:00:50.808Z,51.80
2018-03-20T10:03:16.917Z,52.90
2018-03-20T10:05:42.849Z,53.40
2018-03-20T10:08:08.829Z,51.50
2018-03-20T10:10:34.791Z,52.00
2018-03-20T10:13:00.747Z,51.00
2018-03-20T10:15:26.838Z,53.20
2018-03-20T10:17:52.941Z,52.10
2018-03-20T10:20:18.930Z,51.90
2018-03-20T10:22:44.893Z,54.50
2018-03-20T10:25:10.833Z,54.90
2018-03-20T10:27:36.780Z,54.30
2018-03-20T10:30:02.761Z,55.50
2018-03-20T10:32:28.767Z,54.70
2018-03-20T10:34:54.823Z,53.30
2018-03-20T10:37:20.792Z,53.90
2018-03-20T10:39:47.516Z,53.70
2018-03-20T10:42:13.460Z,53.70
2018-03-20T10:44:39.424Z,53.80
2018-03-20T10:47:05.428Z,54.50
2018-03-20T10:49:31.436Z,53.80
2018-03-20T10:51:57.409Z,55.20
2018-03-20T10:54:23.393Z,52.00
2018-03-20T10:56:49.408Z,51.60
2018-03-20T10:59:15.365Z,50.40
2018-03-20T11:01:41.312Z,50.60
2018-03-20T11:04:08.046Z,51.60
2018-03-20T11:06:34.008Z,51.60
2018-03-20T11:09:00.012Z,47.70
2018-03-20T11:11:26.697Z,48.40
2018-03-20T11:13:52.821Z,48.40
2018-03-20T11:16:18.768Z,49.50
2018-03-20T11:18:44.796Z,49.00
2018-03-20T11:21:10.728Z,50.10
2018-03-20T11:23:36.668Z,49.20
2018-03-20T11:26:02.661Z,51.90
2018-03-20T11:28:28.592Z,47.90
2018-03-20T11:30:56.236Z,50.30
2018-03-20T11:33:22.171Z,50.40
2018-03-20T11:35:48.108Z,50.20
2018-03-20T11:38:14.821Z,49.80
2018-03-20T11:40:40.799Z,49.70
2018-03-20T11:43:06.735Z,48.10
2018-03-20T11:45:32.675Z,49.00
2018-03-20T11:47:58.646Z,48.60
2018-03-20T11:50:25.319Z,48.80
2018-03-20T11:52:51.398Z,48.80
2018-03-20T11:55:18.072Z,48.70
2018-03-20T11:57:44.162Z,48.60
2018-03-20T12:00:10.126Z,48.80
2018-03-20T12:02:36.111Z,47.90
2018-03-20T12:05:02.814Z,45.30
2018-03-20T12:07:28.770Z,45.30
2018-03-20T12:09:55.509Z,46.10
2018-03-20T12:12:22.353Z,46.80
2018-03-20T12:14:49.203Z,48.50
2018-03-20T12:17:15.892Z,49.20
2018-03-20T12:19:41.861Z,49.20
2018-03-20T12:22:08.556Z,45.60
2018-03-20T12:24:34.559Z,45.50
2018-03-20T12:27:00.497Z,45.40
2018-03-20T12:29:26.455Z,46.70
2018-03-20T12:31:53.194Z,48.20
2018-03-20T12:34:19.170Z,48.20
2018-03-20T12:36:45.836Z,47.80
2018-03-20T12:39:11.934Z,47.80
2018-03-20T12:41:37.913Z,49.10
2018-03-20T12:44:04.740Z,53.00
2018-03-20T12:46:30.739Z,53.00
2018-03-20T12:48:56.699Z,54.70
2018-03-20T12:51:23.410Z,63.50
2018-03-20T12:53:49.368Z,63.40
2018-03-20T12:56:15.353Z,66.70
2018-03-20T12:58:41.317Z,69.50
2018-03-20T13:01:07.281Z,69.50
2018-03-20T13:03:33.261Z,71.00
2018-03-20T13:05:59.256Z,71.40
2018-03-20T13:08:25.204Z,71.60
2018-03-20T13:10:51.212Z,72.60
2018-03-20T13:13:18.089Z,73.10
2018-03-20T13:15:44.037Z,73.10
2018-03-20T13:18:10.168Z,74.60
2018-03-20T13:20:36.144Z,74.10
2018-03-20T13:23:02.125Z,71.60
2018-03-20T13:25:28.098Z,72.60
2018-03-20T13:27:54.088Z,71.80
2018-03-20T13:30:20.047Z,71.50
2018-03-20T13:32:46.129Z,70.20
2018-03-20T13:35:12.072Z,70.70
2018-03-20T13:37:38.091Z,70.50
2018-03-20T13:40:04.760Z,71.30
2018-03-20T13:42:30.738Z,71.30
2018-03-20T13:44:57.445Z,69.70
2018-03-20T13:47:23.409Z,69.70
2018-03-20T13:49:50.245Z,70.20
2018-03-20T13:52:16.933Z,70.20
2018-03-20T13:54:42.932Z,70.10
2018-03-20T13:57:08.853Z,70.80
2018-03-20T13:59:34.826Z,70.90
2018-03-20T14:02:00.771Z,70.70
2018-03-20T14:04:27.618Z,70.50
2018-03-20T14:06:54.300Z,69.10
2018-03-20T14:09:20.294Z,69.10
2018-03-20T14:11:46.256Z,69.60
2018-03-20T14:14:12.376Z,68.70
2018-03-20T14:16:38.301Z,69.10
2018-03-20T14:19:04.298Z,69.70
2018-03-20T14:21:30.273Z,70.00
2018-03-20T14:23:56.964Z,69.50
2018-03-20T14:26:22.952Z,69.50
2018-03-20T14:28:49.671Z,69.80
2018-03-20T14:31:15.690Z,69.80
2018-03-20T14:33:41.590Z,71.60
2018-03-20T14:36:07.676Z,71.90
2018-03-20T14:38:33.628Z,71.90
2018-03-20T14:40:59.600Z,71.70
2018-03-20T14:43:26.276Z,73.00
2018-03-20T14:45:52.244Z,73.00
2018-03-20T14:48:18.210Z,72.80
2018-03-20T14:50:44.158Z,72.30
2018-03-20T14:53:10.178Z,72.40
2018-03-20T14:55:36.133Z,74.20
2018-03-20T14:58:02.085Z,75.30
2018-03-20T15:00:28.032Z,75.60
2018-03-20T15:02:54.000Z,75.60
2018-03-20T15:05:19.994Z,76.50
2018-03-20T15:07:45.969Z,77.60
2018-03-20T15:10:12.740Z,77.20
2018-03-20T15:12:38.679Z,77.20
2018-03-20T15:15:04.799Z,77.00
2018-03-20T15:17:30.733Z,78.10
2018-03-20T15:19:56.696Z,77.70
2018-03-20T15:22:23.423Z,78.90
2018-03-20T15:24:49.361Z,78.90
2018-03-20T15:27:16.185Z,80.40
2018-03-20T15:29:42.148Z,80.40
2018-03-20T15:32:08.138Z,80.00
2018-03-20T15:34:34.868Z,80.00
2018-03-20T15:37:00.860Z,80.00
2018-03-20T15:39:26.810Z,80.20
2018-03-20T15:41:52.807Z,80.20
2018-03-20T15:44:18.760Z,80.50
2018-03-20T15:46:44.736Z,80.40
2018-03-20T15:49:10.679Z,81.00
2018-03-20T15:51:36.638Z,81.10
2018-03-20T15:54:03.361Z,81.30
2018-03-20T15:56:29.293Z,81.20
2018-03-20T15:58:56.129Z,81.20
2018-03-20T16:01:22.813Z,81.70
2018-03-20T16:03:48.833Z,81.60
2018-03-20T16:06:15.502Z,81.30
2018-03-20T16:08:41.473Z,81.30
2018-03-20T16:11:08.152Z,80.90
2018-03-20T16:13:34.258Z,80.90
2018-03-20T16:16:00.335Z,81.50
2018-03-20T16:18:26.323Z,81.40
2018-03-20T16:20:52.272Z,81.50
2018-03-20T16:23:18.252Z,82.00
2018-03-20T16:25:44.201Z,81.90
2018-03-20T16:28:10.140Z,81.80
2018-03-20T16:30:36.216Z,81.50
2018-03-20T16:33:02.172Z,81.30
2018-03-20T16:35:28.165Z,82.40
2018-03-20T16:37:54.158Z,82.00
2018-03-20T16:40:20.847Z,81.80
2018-03-20T16:42:46.817Z,81.70
2018-03-20T16:45:12.792Z,81.70
2018-03-20T16:47:38.892Z,81.60
2018-03-20T16:50:04.841Z,82.10
2018-03-20T16:52:30.816Z,82.80
2018-03-20T16:54:56.760Z,83.00
2018-03-20T16:57:22.716Z,83.10
2018-03-20T16:59:48.709Z,83.20
2018-03-20T17:02:14.656Z,83.30
2018-03-20T17:04:40.748Z,83.60
2018-03-20T17:07:06.677Z,83.50
2018-03-20T17:09:32.665Z,83.40
2018-03-20T17:11:59.348Z,83.90
2018-03-20T17:14:25.433Z,84.00
2018-03-20T17:16:52.170Z,83.40
2018-03-20T17:19:18.117Z,83.40
2018-03-20T17:21:44.106Z,83.20
2018-03-20T17:24:10.804Z,82.80
2018-03-20T17:26:36.822Z,82.80
2018-03-20T17:29:02.824Z,82.50
2018-03-20T17:31:28.804Z,82.20
2018-03-20T17:33:54.746Z,82.30
2018-03-20T17:36:20.686Z,82.90
2018-03-20T17:38:46.792Z,82.40
2018-03-20T17:41:13.502Z,83.00
2018-03-20T17:43:39.440Z,83.00
2018-03-20T17:46:06.140Z,83.90
2018-03-20T17:48:32.114Z,83.90
2018-03-20T17:50:58.791Z,84.10
2018-03-20T17:53:24.745Z,84.10
2018-03-20T17:55:50.706Z,84.20
2018-03-20T17:58:16.684Z,84.30
2018-03-20T18:00:42.682Z,84.70
2018-03-20T18:03:08.652Z,85.90
2018-03-20T18:05:35.372Z,86.00
2018-03-20T18:08:01.312Z,86.00
2018-03-20T18:10:28.153Z,87.10
2018-03-20T18:12:54.104Z,87.10
2018-03-20T18:15:20.215Z,87.60
2018-03-20T18:17:46.148Z,87.90
2018-03-20T18:20:12.109Z,88.10
2018-03-20T18:22:38.093Z,88.50
2018-03-20T18:25:04.036Z,88.60
2018-03-20T18:27:30.069Z,88.50
2018-03-20T18:29:56.001Z,88.80
2018-03-20T18:32:21.991Z,89.00
2018-03-20T18:34:47.958Z,88.80
2018-03-20T18:37:13.938Z,88.40
2018-03-20T18:39:39.865Z,88.40
2018-03-20T18:42:05.802Z,88.70
2018-03-20T18:44:31.820Z,88.40
2018-03-20T18:46:57.785Z,88.50
2018-03-20T18:49:24.459Z,90.00
2018-03-20T18:51:50.389Z,89.40
2018-03-20T18:54:16.376Z,89.60
2018-03-20T18:56:42.340Z,89.70
2018-03-20T18:59:08.358Z,89.70
2018-03-20T19:01:34.292Z,89.80
2018-03-20T19:04:00.280Z,90.10
2018-03-20T19:06:26.243Z,90.20
2018-03-20T19:08:52.209Z,90.40
2018-03-20T19:11:18.945Z,90.50
2018-03-20T19:13:45.928Z,90.60
2018-03-20T19:16:11.909Z,90.50
2018-03-20T19:18:38.598Z,90.30
2018-03-20T19:21:05.325Z,90.20
2018-03-20T19:23:31.296Z,90.20
2018-03-20T19:25:57.316Z,90.00
2018-03-20T19:28:23.257Z,89.90
2018-03-20T19:30:49.954Z,90.10
2018-03-20T19:33:16.052Z,90.10
2018-03-20T19:35:42.017Z,90.00
2018-03-20T19:38:08.020Z,90.20
2018-03-20T19:40:33.993Z,90.40
2018-03-20T19:42:59.996Z,90.70
2018-03-20T19:45:25.944Z,90.90
2018-03-20T19:47:51.967Z,90.80
2018-03-20T19:50:18.682Z,91.00
2018-03-20T19:52:44.617Z,91.00
2018-03-20T19:55:10.602Z,91.10
2018-03-20T19:57:36.546Z,91.10
2018-03-20T20:00:02.711Z,91.00
2018-03-20T20:02:28.830Z,91.00
2018-03-20T20:04:54.963Z,91.10
2018-03-20T20:07:21.085Z,91.10
2018-03-20T20:09:47.839Z,91.00
2018-03-20T20:12:13.808Z,91.00
2018-03-20T20:14:39.907Z,90.80
2018-03-20T20:17:05.870Z,90.60
2018-03-20T20:19:32.556Z,90.40
2018-03-20T20:21:58.699Z,90.40
2018-03-20T20:24:24.641Z,90.30
2018-03-20T20:26:50.604Z,90.30
2018-03-20T20:29:16.584Z,90.20
2018-03-20T20:31:42.513Z,90.00
2018-03-20T20:34:08.505Z,89.80
2018-03-20T20:36:34.496Z,90.00
2018-03-20T20:39:00.512Z,89.70
2018-03-20T20:41:26.490Z,90.00
2018-03-20T20:46:30.296Z,89.30
2018-03-20T20:48:56.258Z,89.30
2018-03-20T20:51:22.932Z,88.30
2018-03-20T20:53:48.939Z,88.30
2018-03-20T20:56:14.889Z,88.20
2018-03-20T20:58:40.844Z,88.30
2018-03-20T21:01:06.826Z,87.50
2018-03-20T21:03:32.772Z,87.80
2018-03-20T21:05:58.744Z,87.50
2018-03-20T21:08:25.466Z,87.00
2018-03-20T21:10:51.473Z,87.00
2018-03-20T21:13:17.662Z,87.00
2018-03-20T21:15:43.706Z,86.80
2018-03-20T21:18:09.644Z,86.10
2018-03-20T21:20:43.149Z,86.30
2018-03-20T21:23:16.681Z,86.00
2018-03-20T21:25:42.790Z,86.30
2018-03-20T21:28:09.494Z,87.70
2018-03-20T21:30:35.456Z,87.60
2018-03-20T21:33:02.197Z,87.20
2018-03-20T21:35:28.916Z,87.40
2018-03-20T21:37:54.900Z,87.40
2018-03-20T21:40:20.824Z,87.70
2018-03-20T21:42:46.916Z,87.60
2018-03-20T21:45:13.599Z,87.60
2018-03-20T21:47:39.566Z,87.60
2018-03-20T21:50:06.257Z,86.90
2018-03-20T21:52:32.259Z,86.80
2018-03-20T21:54:58.188Z,86.80
2018-03-20T21:57:24.120Z,86.80
2018-03-20T21:59:50.224Z,86.80
2018-03-20T22:02:16.193Z,86.70
2018-03-20T22:04:42.176Z,86.40
2018-03-20T22:07:08.156Z,87.00
2018-03-20T22:09:34.121Z,87.20
2018-03-20T22:12:00.068Z,86.80
2018-03-20T22:14:26.298Z,86.80
2018-03-20T22:16:52.240Z,86.40
2018-03-20T22:19:18.230Z,85.90
2018-03-20T22:21:44.195Z,85.70
2018-03-20T22:24:10.933Z,85.80
2018-03-20T22:26:37.619Z,85.90
2018-03-20T22:29:03.736Z,85.90
2018-03-20T22:31:29.685Z,85.60
2018-03-20T22:33:55.657Z,85.50
2018-03-20T22:36:21.597Z,85.70
2018-03-20T22:38:47.561Z,85.70
2018-03-20T22:41:13.537Z,85.90
2018-03-20T22:43:39.542Z,85.70
2018-03-20T22:46:06.356Z,86.00
2018-03-20T22:48:32.285Z,86.00
2018-03-20T22:50:58.270Z,85.80
2018-03-20T22:53:24.233Z,85.90
2018-03-20T22:55:50.181Z,85.30
2018-03-20T22:58:16.156Z,85.50
2018-03-20T23:00:42.251Z,85.50
2018-03-20T23:03:08.268Z,85.40
2018-03-20T23:05:34.988Z,85.40
2018-03-20T23:08:01.684Z,85.70
2018-03-20T23:10:27.616Z,85.70
2018-03-20T23:12:53.585Z,85.20
2018-03-20T23:15:19.705Z,85.40
2018-03-20T23:17:45.801Z,85.10
2018-03-20T23:20:11.734Z,85.30
2018-03-20T23:22:38.437Z,85.10
2018-03-20T23:25:04.426Z,85.20
2018-03-20T23:27:30.352Z,85.20
2018-03-20T23:29:56.307Z,85.10
2018-03-20T23:32:22.244Z,84.70
2018-03-20T23:34:49.090Z,84.20
2018-03-20T23:37:15.024Z,84.20
2018-03-20T23:39:41.719Z,83.80
2018-03-20T23:42:07.649Z,83.70
2018-03-20T23:44:33.623Z,83.40
2018-03-20T23:46:59.574Z,83.40
2018-03-20T23:49:25.673Z,83.80
2018-03-20T23:51:51.624Z,83.70
2018-03-20T23:54:17.593Z,83.70
2018-03-20T23:56:44.288Z,83.00
2018-03-20T23:59:10.244Z,83.00
